sensor_id;sensor_type;location;lat;lon;timestamp;P1;durP1;ratioP1;P2;durP2;ratioP2
79204;SDS011;68632;47.512;19.104;2023-07-13T00:00:34;9.40;;;5.18;;
79204;SDS011;68632;47.512;19.104;2023-07-13T00:01:38;10.30;;;5.05;;
79204;SDS011;68632;47.512;19.104;2023-07-13T00:02:40;8.95;;;5.28;;
79204;SDS011;68632;47.512;19.104;2023-07-13T00:03:43;11.75;;;5.57;;
79204;SDS011;68632;47.512;19.104;2023-07-13T00:04:45;9.45;;;5.25;;
79204;SDS011;68632;47.512;19.104;2023-07-13T00:05:56;10.25;;;5.53;;
79204;SDS011;68632;47.512;19.104;2023-07-13T00:06:59;11.13;;;5.05;;
79204;SDS011;68632;47.512;19.104;2023-07-13T00:08:01;8.23;;;4.85;;
79204;SDS011;68632;47.512;19.104;2023-07-13T00:09:03;8.82;;;4.50;;
79204;SDS011;68632;47.512;19.104;2023-07-13T00:10:06;9.40;;;4.57;;
79204;SDS011;68632;47.512;19.104;2023-07-13T00:11:08;8.68;;;4.50;;
79204;SDS011;68632;47.512;19.104;2023-07-13T00:12:22;8.93;;;4.25;;
79204;SDS011;68632;47.512;19.104;2023-07-13T00:13:27;8.77;;;4.45;;
79204;SDS011;68632;47.512;19.104;2023-07-13T00:14:30;8.32;;;4.28;;
79204;SDS011;68632;47.512;19.104;2023-07-13T00:15:32;8.88;;;4.18;;
79204;SDS011;68632;47.512;19.104;2023-07-13T00:16:35;9.85;;;4.55;;
79204;SDS011;68632;47.512;19.104;2023-07-13T00:17:39;7.15;;;4.47;;
79204;SDS011;68632;47.512;19.104;2023-07-13T00:18:41;9.40;;;4.07;;
79204;SDS011;68632;47.512;19.104;2023-07-13T00:19:43;7.78;;;4.13;;
79204;SDS011;68632;47.512;19.104;2023-07-13T00:20:45;7.80;;;4.10;;
79204;SDS011;68632;47.512;19.104;2023-07-13T00:21:48;7.35;;;3.42;;
79204;SDS011;68632;47.512;19.104;2023-07-13T00:22:50;8.02;;;4.13;;
79204;SDS011;68632;47.512;19.104;2023-07-13T00:23:55;6.93;;;4.28;;
79204;SDS011;68632;47.512;19.104;2023-07-13T00:24:57;6.30;;;3.65;;
79204;SDS011;68632;47.512;19.104;2023-07-13T00:26:00;9.65;;;4.47;;
79204;SDS011;68632;47.512;19.104;2023-07-13T00:27:03;9.13;;;4.07;;
79204;SDS011;68632;47.512;19.104;2023-07-13T00:28:06;10.38;;;3.95;;
79204;SDS011;68632;47.512;19.104;2023-07-13T00:29:08;6.32;;;3.15;;
79204;SDS011;68632;47.512;19.104;2023-07-13T00:30:11;6.60;;;4.00;;
79204;SDS011;68632;47.512;19.104;2023-07-13T00:31:13;6.78;;;4.05;;
79204;SDS011;68632;47.512;19.104;2023-07-13T00:32:18;7.25;;;4.32;;
79204;SDS011;68632;47.512;19.104;2023-07-13T00:33:21;8.95;;;3.67;;
79204;SDS011;68632;47.512;19.104;2023-07-13T00:34:24;7.22;;;3.88;;
79204;SDS011;68632;47.512;19.104;2023-07-13T00:35:27;7.05;;;3.92;;
79204;SDS011;68632;47.512;19.104;2023-07-13T00:36:29;8.10;;;4.00;;
79204;SDS011;68632;47.512;19.104;2023-07-13T00:37:32;7.05;;;4.43;;
79204;SDS011;68632;47.512;19.104;2023-07-13T00:38:35;7.60;;;4.30;;
79204;SDS011;68632;47.512;19.104;2023-07-13T00:39:37;6.50;;;3.90;;
79204;SDS011;68632;47.512;19.104;2023-07-13T00:40:40;6.28;;;4.35;;
79204;SDS011;68632;47.512;19.104;2023-07-13T00:41:43;10.23;;;4.15;;
79204;SDS011;68632;47.512;19.104;2023-07-13T00:42:46;8.63;;;4.00;;
79204;SDS011;68632;47.512;19.104;2023-07-13T00:43:48;6.78;;;3.47;;
79204;SDS011;68632;47.512;19.104;2023-07-13T00:45:07;7.88;;;3.83;;
79204;SDS011;68632;47.512;19.104;2023-07-13T00:46:29;7.40;;;3.75;;
79204;SDS011;68632;47.512;19.104;2023-07-13T00:47:32;7.60;;;4.63;;
79204;SDS011;68632;47.512;19.104;2023-07-13T00:48:34;8.00;;;4.00;;
79204;SDS011;68632;47.512;19.104;2023-07-13T00:49:37;6.20;;;3.65;;
79204;SDS011;68632;47.512;19.104;2023-07-13T00:50:39;7.40;;;3.60;;
79204;SDS011;68632;47.512;19.104;2023-07-13T00:52:02;6.78;;;3.63;;
79204;SDS011;68632;47.512;19.104;2023-07-13T00:53:07;6.55;;;3.90;;
79204;SDS011;68632;47.512;19.104;2023-07-13T00:54:11;6.95;;;3.95;;
79204;SDS011;68632;47.512;19.104;2023-07-13T00:55:16;6.07;;;3.80;;
79204;SDS011;68632;47.512;19.104;2023-07-13T00:56:19;7.78;;;4.50;;
79204;SDS011;68632;47.512;19.104;2023-07-13T00:57:21;8.85;;;3.80;;
79204;SDS011;68632;47.512;19.104;2023-07-13T00:58:24;5.93;;;3.92;;
79204;SDS011;68632;47.512;19.104;2023-07-13T00:59:27;6.72;;;4.07;;
79204;SDS011;68632;47.512;19.104;2023-07-13T01:00:29;7.75;;;4.03;;
79204;SDS011;68632;47.512;19.104;2023-07-13T01:01:31;11.43;;;4.00;;
79204;SDS011;68632;47.512;19.104;2023-07-13T01:02:42;6.32;;;3.92;;
79204;SDS011;68632;47.512;19.104;2023-07-13T01:03:44;6.55;;;4.00;;
79204;SDS011;68632;47.512;19.104;2023-07-13T01:04:48;6.75;;;3.80;;
79204;SDS011;68632;47.512;19.104;2023-07-13T01:05:51;9.65;;;4.00;;
79204;SDS011;68632;47.512;19.104;2023-07-13T01:06:55;9.20;;;4.03;;
79204;SDS011;68632;47.512;19.104;2023-07-13T01:07:59;9.50;;;4.13;;
79204;SDS011;68632;47.512;19.104;2023-07-13T01:09:01;6.97;;;4.05;;
79204;SDS011;68632;47.512;19.104;2023-07-13T01:10:04;6.47;;;4.18;;
79204;SDS011;68632;47.512;19.104;2023-07-13T01:11:07;8.02;;;3.92;;
79204;SDS011;68632;47.512;19.104;2023-07-13T01:12:10;10.15;;;4.18;;
79204;SDS011;68632;47.512;19.104;2023-07-13T01:13:12;5.57;;;3.58;;
79204;SDS011;68632;47.512;19.104;2023-07-13T01:14:15;6.30;;;4.20;;
79204;SDS011;68632;47.512;19.104;2023-07-13T01:15:38;8.57;;;3.97;;
79204;SDS011;68632;47.512;19.104;2023-07-13T01:16:44;9.93;;;4.07;;
79204;SDS011;68632;47.512;19.104;2023-07-13T01:17:49;7.30;;;3.97;;
79204;SDS011;68632;47.512;19.104;2023-07-13T01:18:51;8.10;;;4.13;;
79204;SDS011;68632;47.512;19.104;2023-07-13T01:19:53;7.63;;;4.03;;
79204;SDS011;68632;47.512;19.104;2023-07-13T01:20:56;6.78;;;4.50;;
79204;SDS011;68632;47.512;19.104;2023-07-13T01:22:07;10.02;;;3.92;;
79204;SDS011;68632;47.512;19.104;2023-07-13T01:23:13;6.70;;;3.90;;
79204;SDS011;68632;47.512;19.104;2023-07-13T01:24:15;7.18;;;4.15;;
79204;SDS011;68632;47.512;19.104;2023-07-13T01:25:18;7.72;;;4.18;;
79204;SDS011;68632;47.512;19.104;2023-07-13T01:26:21;8.55;;;4.60;;
79204;SDS011;68632;47.512;19.104;2023-07-13T01:27:24;7.75;;;4.43;;
79204;SDS011;68632;47.512;19.104;2023-07-13T01:28:27;15.00;;;4.30;;
79204;SDS011;68632;47.512;19.104;2023-07-13T01:29:31;10.80;;;4.15;;
79204;SDS011;68632;47.512;19.104;2023-07-13T01:30:35;6.82;;;3.97;;
79204;SDS011;68632;47.512;19.104;2023-07-13T01:31:38;5.30;;;3.85;;
79204;SDS011;68632;47.512;19.104;2023-07-13T01:32:40;8.15;;;4.05;;
79204;SDS011;68632;47.512;19.104;2023-07-13T01:33:43;8.93;;;4.53;;
79204;SDS011;68632;47.512;19.104;2023-07-13T01:34:45;12.48;;;4.57;;
79204;SDS011;68632;47.512;19.104;2023-07-13T01:35:48;7.32;;;3.97;;
79204;SDS011;68632;47.512;19.104;2023-07-13T01:36:50;5.35;;;3.83;;
79204;SDS011;68632;47.512;19.104;2023-07-13T01:37:55;13.25;;;4.20;;
79204;SDS011;68632;47.512;19.104;2023-07-13T01:38:58;6.38;;;3.97;;
79204;SDS011;68632;47.512;19.104;2023-07-13T01:40:00;14.30;;;4.57;;
79204;SDS011;68632;47.512;19.104;2023-07-13T01:41:03;8.25;;;4.55;;
79204;SDS011;68632;47.512;19.104;2023-07-13T01:42:05;5.75;;;4.05;;
79204;SDS011;68632;47.512;19.104;2023-07-13T01:43:08;11.70;;;4.68;;
79204;SDS011;68632;47.512;19.104;2023-07-13T01:44:10;11.00;;;4.28;;
79204;SDS011;68632;47.512;19.104;2023-07-13T01:45:12;9.65;;;4.38;;
79204;SDS011;68632;47.512;19.104;2023-07-13T01:46:14;8.18;;;4.60;;
79204;SDS011;68632;47.512;19.104;2023-07-13T01:47:19;8.65;;;4.78;;
79204;SDS011;68632;47.512;19.104;2023-07-13T01:48:21;7.38;;;4.43;;
79204;SDS011;68632;47.512;19.104;2023-07-13T01:49:23;7.95;;;4.40;;
79204;SDS011;68632;47.512;19.104;2023-07-13T01:50:26;7.90;;;4.25;;
79204;SDS011;68632;47.512;19.104;2023-07-13T01:51:28;9.98;;;4.20;;
79204;SDS011;68632;47.512;19.104;2023-07-13T01:52:30;8.25;;;3.92;;
79204;SDS011;68632;47.512;19.104;2023-07-13T01:53:32;6.63;;;4.00;;
79204;SDS011;68632;47.512;19.104;2023-07-13T01:54:35;9.68;;;3.97;;
79204;SDS011;68632;47.512;19.104;2023-07-13T01:55:37;10.30;;;4.53;;
79204;SDS011;68632;47.512;19.104;2023-07-13T01:56:39;7.07;;;4.00;;
79204;SDS011;68632;47.512;19.104;2023-07-13T01:57:43;8.00;;;4.30;;
79204;SDS011;68632;47.512;19.104;2023-07-13T01:58:45;9.68;;;4.55;;
79204;SDS011;68632;47.512;19.104;2023-07-13T01:59:48;6.07;;;4.07;;
79204;SDS011;68632;47.512;19.104;2023-07-13T02:00:51;6.63;;;3.95;;
79204;SDS011;68632;47.512;19.104;2023-07-13T02:01:53;5.95;;;3.88;;
79204;SDS011;68632;47.512;19.104;2023-07-13T02:02:56;9.20;;;4.82;;
79204;SDS011;68632;47.512;19.104;2023-07-13T02:03:58;7.63;;;3.90;;
79204;SDS011;68632;47.512;19.104;2023-07-13T02:05:00;7.75;;;4.43;;
79204;SDS011;68632;47.512;19.104;2023-07-13T02:06:02;12.15;;;4.30;;
79204;SDS011;68632;47.512;19.104;2023-07-13T02:07:05;6.05;;;4.30;;
79204;SDS011;68632;47.512;19.104;2023-07-13T02:08:07;11.38;;;4.40;;
79204;SDS011;68632;47.512;19.104;2023-07-13T02:09:09;7.25;;;3.97;;
79204;SDS011;68632;47.512;19.104;2023-07-13T02:10:12;8.77;;;4.72;;
79204;SDS011;68632;47.512;19.104;2023-07-13T02:11:14;5.32;;;3.75;;
79204;SDS011;68632;47.512;19.104;2023-07-13T02:12:16;7.95;;;4.80;;
79204;SDS011;68632;47.512;19.104;2023-07-13T02:13:18;11.15;;;4.60;;
79204;SDS011;68632;47.512;19.104;2023-07-13T02:14:20;6.40;;;4.22;;
79204;SDS011;68632;47.512;19.104;2023-07-13T02:15:22;10.98;;;4.65;;
79204;SDS011;68632;47.512;19.104;2023-07-13T02:16:25;5.90;;;4.10;;
79204;SDS011;68632;47.512;19.104;2023-07-13T02:17:27;8.82;;;4.15;;
79204;SDS011;68632;47.512;19.104;2023-07-13T02:18:29;6.85;;;4.25;;
79204;SDS011;68632;47.512;19.104;2023-07-13T02:19:31;7.03;;;4.55;;
79204;SDS011;68632;47.512;19.104;2023-07-13T02:20:34;6.82;;;4.00;;
79204;SDS011;68632;47.512;19.104;2023-07-13T02:21:36;6.38;;;4.30;;
79204;SDS011;68632;47.512;19.104;2023-07-13T02:22:38;9.07;;;4.18;;
79204;SDS011;68632;47.512;19.104;2023-07-13T02:23:40;6.70;;;4.15;;
79204;SDS011;68632;47.512;19.104;2023-07-13T02:24:42;8.68;;;4.28;;
79204;SDS011;68632;47.512;19.104;2023-07-13T02:25:45;7.22;;;4.72;;
79204;SDS011;68632;47.512;19.104;2023-07-13T02:26:47;8.02;;;4.68;;
79204;SDS011;68632;47.512;19.104;2023-07-13T02:27:49;10.07;;;4.43;;
79204;SDS011;68632;47.512;19.104;2023-07-13T02:28:51;10.13;;;4.32;;
79204;SDS011;68632;47.512;19.104;2023-07-13T02:29:54;9.18;;;4.18;;
79204;SDS011;68632;47.512;19.104;2023-07-13T02:31:03;6.43;;;3.90;;
79204;SDS011;68632;47.512;19.104;2023-07-13T02:32:06;5.75;;;4.22;;
79204;SDS011;68632;47.512;19.104;2023-07-13T02:33:09;8.13;;;4.05;;
79204;SDS011;68632;47.512;19.104;2023-07-13T02:34:11;8.50;;;4.80;;
79204;SDS011;68632;47.512;19.104;2023-07-13T02:35:13;6.20;;;4.22;;
79204;SDS011;68632;47.512;19.104;2023-07-13T02:36:15;8.75;;;4.90;;
79204;SDS011;68632;47.512;19.104;2023-07-13T02:37:18;5.88;;;3.88;;
79204;SDS011;68632;47.512;19.104;2023-07-13T02:38:20;7.60;;;3.90;;
79204;SDS011;68632;47.512;19.104;2023-07-13T02:39:22;6.38;;;3.55;;
79204;SDS011;68632;47.512;19.104;2023-07-13T02:40:24;7.18;;;3.55;;
79204;SDS011;68632;47.512;19.104;2023-07-13T02:41:26;7.43;;;4.28;;
79204;SDS011;68632;47.512;19.104;2023-07-13T02:42:29;6.43;;;4.13;;
79204;SDS011;68632;47.512;19.104;2023-07-13T02:43:31;7.22;;;3.70;;
79204;SDS011;68632;47.512;19.104;2023-07-13T02:44:33;5.93;;;3.78;;
79204;SDS011;68632;47.512;19.104;2023-07-13T02:45:35;7.38;;;3.70;;
79204;SDS011;68632;47.512;19.104;2023-07-13T02:46:37;7.03;;;3.70;;
79204;SDS011;68632;47.512;19.104;2023-07-13T02:47:41;6.60;;;3.55;;
79204;SDS011;68632;47.512;19.104;2023-07-13T02:48:43;5.95;;;4.03;;
79204;SDS011;68632;47.512;19.104;2023-07-13T02:49:45;7.68;;;4.65;;
79204;SDS011;68632;47.512;19.104;2023-07-13T02:50:48;6.75;;;4.13;;
79204;SDS011;68632;47.512;19.104;2023-07-13T02:51:50;7.68;;;3.70;;
79204;SDS011;68632;47.512;19.104;2023-07-13T02:52:53;10.13;;;4.43;;
79204;SDS011;68632;47.512;19.104;2023-07-13T02:53:55;6.35;;;4.18;;
79204;SDS011;68632;47.512;19.104;2023-07-13T02:54:57;9.18;;;4.38;;
79204;SDS011;68632;47.512;19.104;2023-07-13T02:55:59;7.35;;;4.15;;
79204;SDS011;68632;47.512;19.104;2023-07-13T02:57:01;7.13;;;4.30;;
79204;SDS011;68632;47.512;19.104;2023-07-13T02:58:03;11.00;;;4.70;;
79204;SDS011;68632;47.512;19.104;2023-07-13T02:59:06;10.15;;;4.82;;
79204;SDS011;68632;47.512;19.104;2023-07-13T03:00:08;7.90;;;4.88;;
79204;SDS011;68632;47.512;19.104;2023-07-13T03:01:11;7.95;;;4.90;;
79204;SDS011;68632;47.512;19.104;2023-07-13T03:02:13;6.35;;;4.97;;
79204;SDS011;68632;47.512;19.104;2023-07-13T03:03:15;12.00;;;5.25;;
79204;SDS011;68632;47.512;19.104;2023-07-13T03:04:18;10.40;;;5.82;;
79204;SDS011;68632;47.512;19.104;2023-07-13T03:05:21;8.27;;;5.53;;
79204;SDS011;68632;47.512;19.104;2023-07-13T03:06:23;14.13;;;5.57;;
79204;SDS011;68632;47.512;19.104;2023-07-13T03:07:26;10.25;;;5.70;;
79204;SDS011;68632;47.512;19.104;2023-07-13T03:08:28;18.63;;;6.78;;
79204;SDS011;68632;47.512;19.104;2023-07-13T03:09:31;8.07;;;5.43;;
79204;SDS011;68632;47.512;19.104;2023-07-13T03:10:34;10.25;;;6.07;;
79204;SDS011;68632;47.512;19.104;2023-07-13T03:11:37;8.00;;;5.63;;
79204;SDS011;68632;47.512;19.104;2023-07-13T03:12:39;11.80;;;5.97;;
79204;SDS011;68632;47.512;19.104;2023-07-13T03:13:41;11.80;;;6.22;;
79204;SDS011;68632;47.512;19.104;2023-07-13T03:14:44;15.15;;;6.80;;
79204;SDS011;68632;47.512;19.104;2023-07-13T03:15:48;13.82;;;6.10;;
79204;SDS011;68632;47.512;19.104;2023-07-13T03:16:50;8.95;;;5.85;;
79204;SDS011;68632;47.512;19.104;2023-07-13T03:17:53;9.20;;;5.93;;
79204;SDS011;68632;47.512;19.104;2023-07-13T03:18:56;11.55;;;5.78;;
79204;SDS011;68632;47.512;19.104;2023-07-13T03:19:58;10.85;;;6.43;;
79204;SDS011;68632;47.512;19.104;2023-07-13T03:21:00;10.52;;;5.85;;
79204;SDS011;68632;47.512;19.104;2023-07-13T03:22:03;10.85;;;6.75;;
79204;SDS011;68632;47.512;19.104;2023-07-13T03:23:05;11.35;;;6.15;;
79204;SDS011;68632;47.512;19.104;2023-07-13T03:24:07;12.10;;;6.47;;
79204;SDS011;68632;47.512;19.104;2023-07-13T03:25:09;9.30;;;5.95;;
79204;SDS011;68632;47.512;19.104;2023-07-13T03:26:17;12.02;;;6.28;;
79204;SDS011;68632;47.512;19.104;2023-07-13T03:27:21;9.95;;;5.63;;
79204;SDS011;68632;47.512;19.104;2023-07-13T03:28:23;10.98;;;6.05;;
79204;SDS011;68632;47.512;19.104;2023-07-13T03:29:25;9.20;;;6.00;;
79204;SDS011;68632;47.512;19.104;2023-07-13T03:30:27;7.88;;;5.68;;
79204;SDS011;68632;47.512;19.104;2023-07-13T03:31:34;13.00;;;5.93;;
79204;SDS011;68632;47.512;19.104;2023-07-13T03:32:37;9.98;;;6.25;;
79204;SDS011;68632;47.512;19.104;2023-07-13T03:33:40;11.95;;;6.38;;
79204;SDS011;68632;47.512;19.104;2023-07-13T03:34:42;9.75;;;6.20;;
79204;SDS011;68632;47.512;19.104;2023-07-13T03:35:44;11.73;;;6.20;;
79204;SDS011;68632;47.512;19.104;2023-07-13T03:36:46;12.25;;;5.97;;
79204;SDS011;68632;47.512;19.104;2023-07-13T03:37:49;12.60;;;6.35;;
79204;SDS011;68632;47.512;19.104;2023-07-13T03:38:55;8.50;;;6.03;;
79204;SDS011;68632;47.512;19.104;2023-07-13T03:39:58;9.02;;;5.00;;
79204;SDS011;68632;47.512;19.104;2023-07-13T03:41:00;8.43;;;5.32;;
79204;SDS011;68632;47.512;19.104;2023-07-13T03:42:03;8.73;;;4.97;;
79204;SDS011;68632;47.512;19.104;2023-07-13T03:43:05;7.90;;;5.20;;
79204;SDS011;68632;47.512;19.104;2023-07-13T03:44:07;12.13;;;5.45;;
79204;SDS011;68632;47.512;19.104;2023-07-13T03:45:10;10.52;;;5.20;;
79204;SDS011;68632;47.512;19.104;2023-07-13T03:46:12;11.48;;;5.97;;
79204;SDS011;68632;47.512;19.104;2023-07-13T03:47:14;9.88;;;4.97;;
79204;SDS011;68632;47.512;19.104;2023-07-13T03:48:16;8.57;;;5.68;;
79204;SDS011;68632;47.512;19.104;2023-07-13T03:49:19;9.98;;;5.18;;
79204;SDS011;68632;47.512;19.104;2023-07-13T03:50:21;8.55;;;4.57;;
79204;SDS011;68632;47.512;19.104;2023-07-13T03:51:23;8.77;;;4.70;;
79204;SDS011;68632;47.512;19.104;2023-07-13T03:52:25;8.80;;;5.15;;
79204;SDS011;68632;47.512;19.104;2023-07-13T03:53:28;9.65;;;4.88;;
79204;SDS011;68632;47.512;19.104;2023-07-13T03:54:30;10.70;;;5.50;;
79204;SDS011;68632;47.512;19.104;2023-07-13T03:55:32;8.88;;;4.82;;
79204;SDS011;68632;47.512;19.104;2023-07-13T03:56:34;8.15;;;4.63;;
79204;SDS011;68632;47.512;19.104;2023-07-13T03:57:37;8.68;;;4.20;;
79204;SDS011;68632;47.512;19.104;2023-07-13T03:58:42;7.80;;;4.50;;
79204;SDS011;68632;47.512;19.104;2023-07-13T03:59:45;8.40;;;4.60;;
79204;SDS011;68632;47.512;19.104;2023-07-13T04:00:47;11.07;;;4.72;;
79204;SDS011;68632;47.512;19.104;2023-07-13T04:01:49;8.93;;;4.82;;
79204;SDS011;68632;47.512;19.104;2023-07-13T04:02:51;9.35;;;4.47;;
79204;SDS011;68632;47.512;19.104;2023-07-13T04:03:54;6.30;;;4.43;;
79204;SDS011;68632;47.512;19.104;2023-07-13T04:04:56;8.70;;;5.15;;
79204;SDS011;68632;47.512;19.104;2023-07-13T04:05:58;7.97;;;4.93;;
79204;SDS011;68632;47.512;19.104;2023-07-13T04:07:02;8.52;;;4.75;;
79204;SDS011;68632;47.512;19.104;2023-07-13T04:08:04;7.20;;;5.03;;
79204;SDS011;68632;47.512;19.104;2023-07-13T04:09:07;8.65;;;4.43;;
79204;SDS011;68632;47.512;19.104;2023-07-13T04:10:10;10.48;;;4.30;;
79204;SDS011;68632;47.512;19.104;2023-07-13T04:11:12;9.25;;;4.80;;
79204;SDS011;68632;47.512;19.104;2023-07-13T04:12:14;7.60;;;4.60;;
79204;SDS011;68632;47.512;19.104;2023-07-13T04:13:17;8.45;;;4.13;;
79204;SDS011;68632;47.512;19.104;2023-07-13T04:14:19;7.55;;;4.53;;
79204;SDS011;68632;47.512;19.104;2023-07-13T04:15:21;7.00;;;4.82;;
79204;SDS011;68632;47.512;19.104;2023-07-13T04:16:23;9.65;;;4.38;;
79204;SDS011;68632;47.512;19.104;2023-07-13T04:17:26;8.70;;;4.45;;
79204;SDS011;68632;47.512;19.104;2023-07-13T04:18:28;8.60;;;4.68;;
79204;SDS011;68632;47.512;19.104;2023-07-13T04:19:30;9.30;;;4.43;;
79204;SDS011;68632;47.512;19.104;2023-07-13T04:20:32;7.90;;;4.50;;
79204;SDS011;68632;47.512;19.104;2023-07-13T04:21:35;9.88;;;4.35;;
79204;SDS011;68632;47.512;19.104;2023-07-13T04:22:37;6.47;;;3.90;;
79204;SDS011;68632;47.512;19.104;2023-07-13T04:23:40;11.40;;;4.07;;
79204;SDS011;68632;47.512;19.104;2023-07-13T04:24:42;6.68;;;3.80;;
79204;SDS011;68632;47.512;19.104;2023-07-13T04:25:47;9.20;;;4.07;;
79204;SDS011;68632;47.512;19.104;2023-07-13T04:26:54;8.35;;;4.32;;
79204;SDS011;68632;47.512;19.104;2023-07-13T04:28:01;7.72;;;4.57;;
79204;SDS011;68632;47.512;19.104;2023-07-13T04:29:05;7.57;;;4.22;;
79204;SDS011;68632;47.512;19.104;2023-07-13T04:30:08;8.15;;;4.57;;
79204;SDS011;68632;47.512;19.104;2023-07-13T04:31:10;11.43;;;4.28;;
79204;SDS011;68632;47.512;19.104;2023-07-13T04:32:12;6.55;;;4.05;;
79204;SDS011;68632;47.512;19.104;2023-07-13T04:33:14;5.32;;;4.10;;
79204;SDS011;68632;47.512;19.104;2023-07-13T04:34:18;5.32;;;4.13;;
79204;SDS011;68632;47.512;19.104;2023-07-13T04:35:20;7.13;;;3.90;;
79204;SDS011;68632;47.512;19.104;2023-07-13T04:36:23;6.78;;;3.75;;
79204;SDS011;68632;47.512;19.104;2023-07-13T04:37:28;8.18;;;3.92;;
79204;SDS011;68632;47.512;19.104;2023-07-13T04:38:31;9.05;;;4.47;;
79204;SDS011;68632;47.512;19.104;2023-07-13T04:39:34;7.95;;;4.30;;
79204;SDS011;68632;47.512;19.104;2023-07-13T04:40:37;7.53;;;3.85;;
79204;SDS011;68632;47.512;19.104;2023-07-13T04:41:39;7.75;;;3.92;;
79204;SDS011;68632;47.512;19.104;2023-07-13T04:42:41;9.10;;;4.55;;
79204;SDS011;68632;47.512;19.104;2023-07-13T04:43:43;7.30;;;4.13;;
79204;SDS011;68632;47.512;19.104;2023-07-13T04:44:49;7.25;;;4.18;;
79204;SDS011;68632;47.512;19.104;2023-07-13T04:45:52;8.65;;;3.85;;
79204;SDS011;68632;47.512;19.104;2023-07-13T04:46:54;8.15;;;4.30;;
79204;SDS011;68632;47.512;19.104;2023-07-13T04:47:56;7.90;;;4.22;;
79204;SDS011;68632;47.512;19.104;2023-07-13T04:48:59;6.50;;;3.75;;
79204;SDS011;68632;47.512;19.104;2023-07-13T04:50:02;7.30;;;4.28;;
79204;SDS011;68632;47.512;19.104;2023-07-13T04:51:05;8.05;;;4.15;;
79204;SDS011;68632;47.512;19.104;2023-07-13T04:52:08;10.13;;;4.20;;
79204;SDS011;68632;47.512;19.104;2023-07-13T04:53:10;7.28;;;4.40;;
79204;SDS011;68632;47.512;19.104;2023-07-13T04:54:12;8.55;;;4.13;;
79204;SDS011;68632;47.512;19.104;2023-07-13T04:55:14;6.00;;;3.38;;
79204;SDS011;68632;47.512;19.104;2023-07-13T04:56:16;7.32;;;4.07;;
79204;SDS011;68632;47.512;19.104;2023-07-13T04:57:18;7.82;;;3.88;;
79204;SDS011;68632;47.512;19.104;2023-07-13T04:58:21;9.13;;;4.47;;
79204;SDS011;68632;47.512;19.104;2023-07-13T04:59:24;9.82;;;4.20;;
79204;SDS011;68632;47.512;19.104;2023-07-13T05:00:26;6.68;;;3.72;;
79204;SDS011;68632;47.512;19.104;2023-07-13T05:01:28;6.35;;;4.22;;
79204;SDS011;68632;47.512;19.104;2023-07-13T05:02:31;5.65;;;4.20;;
79204;SDS011;68632;47.512;19.104;2023-07-13T05:03:34;8.20;;;4.25;;
79204;SDS011;68632;47.512;19.104;2023-07-13T05:04:36;7.93;;;4.00;;
79204;SDS011;68632;47.512;19.104;2023-07-13T05:05:39;7.57;;;3.75;;
79204;SDS011;68632;47.512;19.104;2023-07-13T05:06:41;5.57;;;3.53;;
79204;SDS011;68632;47.512;19.104;2023-07-13T05:07:43;7.47;;;3.80;;
79204;SDS011;68632;47.512;19.104;2023-07-13T05:08:47;6.63;;;3.65;;
79204;SDS011;68632;47.512;19.104;2023-07-13T05:09:49;5.93;;;3.63;;
79204;SDS011;68632;47.512;19.104;2023-07-13T05:10:51;7.68;;;4.05;;
79204;SDS011;68632;47.512;19.104;2023-07-13T05:11:54;10.65;;;4.80;;
79204;SDS011;68632;47.512;19.104;2023-07-13T05:12:56;8.70;;;4.07;;
79204;SDS011;68632;47.512;19.104;2023-07-13T05:13:58;6.15;;;3.83;;
79204;SDS011;68632;47.512;19.104;2023-07-13T05:15:01;7.00;;;3.72;;
79204;SDS011;68632;47.512;19.104;2023-07-13T05:16:04;7.38;;;4.40;;
79204;SDS011;68632;47.512;19.104;2023-07-13T05:17:10;8.20;;;4.63;;
79204;SDS011;68632;47.512;19.104;2023-07-13T05:18:12;12.18;;;4.72;;
79204;SDS011;68632;47.512;19.104;2023-07-13T05:19:14;6.05;;;4.18;;
79204;SDS011;68632;47.512;19.104;2023-07-13T05:20:16;4.80;;;3.10;;
79204;SDS011;68632;47.512;19.104;2023-07-13T05:21:19;8.85;;;3.58;;
79204;SDS011;68632;47.512;19.104;2023-07-13T05:22:21;6.50;;;3.70;;
79204;SDS011;68632;47.512;19.104;2023-07-13T05:23:24;7.10;;;4.00;;
79204;SDS011;68632;47.512;19.104;2023-07-13T05:24:26;8.35;;;4.03;;
79204;SDS011;68632;47.512;19.104;2023-07-13T05:25:28;5.75;;;3.80;;
79204;SDS011;68632;47.512;19.104;2023-07-13T05:26:31;6.45;;;3.75;;
79204;SDS011;68632;47.512;19.104;2023-07-13T05:27:34;9.95;;;4.15;;
79204;SDS011;68632;47.512;19.104;2023-07-13T05:28:37;9.93;;;4.45;;
79204;SDS011;68632;47.512;19.104;2023-07-13T05:29:39;8.10;;;3.85;;
79204;SDS011;68632;47.512;19.104;2023-07-13T05:30:45;10.55;;;4.85;;
79204;SDS011;68632;47.512;19.104;2023-07-13T05:31:48;8.73;;;4.07;;
79204;SDS011;68632;47.512;19.104;2023-07-13T05:32:51;8.18;;;3.90;;
79204;SDS011;68632;47.512;19.104;2023-07-13T05:33:53;7.57;;;3.65;;
79204;SDS011;68632;47.512;19.104;2023-07-13T05:34:55;8.52;;;3.88;;
79204;SDS011;68632;47.512;19.104;2023-07-13T05:35:58;8.90;;;4.07;;
79204;SDS011;68632;47.512;19.104;2023-07-13T05:37:02;6.85;;;4.40;;
79204;SDS011;68632;47.512;19.104;2023-07-13T05:38:04;8.93;;;3.83;;
79204;SDS011;68632;47.512;19.104;2023-07-13T05:39:07;7.45;;;4.10;;
79204;SDS011;68632;47.512;19.104;2023-07-13T05:40:09;5.35;;;3.08;;
79204;SDS011;68632;47.512;19.104;2023-07-13T05:41:11;5.80;;;4.28;;
79204;SDS011;68632;47.512;19.104;2023-07-13T05:42:14;6.20;;;3.95;;
79204;SDS011;68632;47.512;19.104;2023-07-13T05:43:16;5.60;;;3.22;;
79204;SDS011;68632;47.512;19.104;2023-07-13T05:44:18;5.10;;;3.28;;
79204;SDS011;68632;47.512;19.104;2023-07-13T05:45:21;8.55;;;4.25;;
79204;SDS011;68632;47.512;19.104;2023-07-13T05:46:23;6.35;;;3.40;;
79204;SDS011;68632;47.512;19.104;2023-07-13T05:47:25;6.10;;;3.63;;
79204;SDS011;68632;47.512;19.104;2023-07-13T05:48:27;4.90;;;3.40;;
79204;SDS011;68632;47.512;19.104;2023-07-13T05:49:29;10.60;;;3.80;;
79204;SDS011;68632;47.512;19.104;2023-07-13T05:50:32;8.07;;;4.45;;
79204;SDS011;68632;47.512;19.104;2023-07-13T05:51:34;6.68;;;3.58;;
79204;SDS011;68632;47.512;19.104;2023-07-13T05:52:36;6.57;;;3.63;;
79204;SDS011;68632;47.512;19.104;2023-07-13T05:53:39;7.03;;;3.80;;
79204;SDS011;68632;47.512;19.104;2023-07-13T05:54:41;6.78;;;3.88;;
79204;SDS011;68632;47.512;19.104;2023-07-13T05:55:44;5.13;;;3.17;;
79204;SDS011;68632;47.512;19.104;2023-07-13T05:56:49;5.65;;;3.40;;
79204;SDS011;68632;47.512;19.104;2023-07-13T05:57:51;5.80;;;3.60;;
79204;SDS011;68632;47.512;19.104;2023-07-13T05:58:53;4.07;;;3.35;;
79204;SDS011;68632;47.512;19.104;2023-07-13T05:59:56;6.20;;;3.10;;
79204;SDS011;68632;47.512;19.104;2023-07-13T06:00:59;3.97;;;2.95;;
79204;SDS011;68632;47.512;19.104;2023-07-13T06:02:03;5.22;;;2.97;;
79204;SDS011;68632;47.512;19.104;2023-07-13T06:03:05;6.45;;;3.72;;
79204;SDS011;68632;47.512;19.104;2023-07-13T06:04:08;6.10;;;3.47;;
79204;SDS011;68632;47.512;19.104;2023-07-13T06:05:10;4.88;;;2.85;;
79204;SDS011;68632;47.512;19.104;2023-07-13T06:06:13;4.57;;;3.28;;
79204;SDS011;68632;47.512;19.104;2023-07-13T06:07:15;6.05;;;3.15;;
79204;SDS011;68632;47.512;19.104;2023-07-13T06:08:17;5.97;;;3.22;;
79204;SDS011;68632;47.512;19.104;2023-07-13T06:09:19;5.70;;;3.33;;
79204;SDS011;68632;47.512;19.104;2023-07-13T06:10:22;5.68;;;3.58;;
79204;SDS011;68632;47.512;19.104;2023-07-13T06:11:24;5.75;;;3.28;;
79204;SDS011;68632;47.512;19.104;2023-07-13T06:12:29;6.85;;;3.53;;
79204;SDS011;68632;47.512;19.104;2023-07-13T06:13:31;5.78;;;3.42;;